Earlham, Iowa
Current Conditions -  °F | °C
As of 10:15 AM on Monday 24 Nov 2014 (Local Time) from KPRO Reporting Station
Overcast Overcast  
Wind Chill: 11°   Ceiling: 2300
Heat Index: 25°   Visibility: 10mi
Dew Point: 19°   Wind: 20mph
Humidity: 76%   Direction: 310°NW
Pressure: 29.6"   Gusts: 25mph
Location:  41.49°N, 94.12°W
Report Text: KPRO 241615Z AUTO 31017G22KT 10SM OVC023 M04/M07 A2960 RMK AO2 T10381074
Loading
Personal Weather Stations






























Interactive Weather Map New forecast layout! Learn more

10-Day Weather Forecast

Advertisements
Track Severe Weather on mobile